Kezdőlap
METAR-TAF:

METAR-TAF

Repülőterek :

Cerklje ob Krki, Szlovénia

földrajzi szélesség: 45-53-59N, földrajzi hosszúság: 15-30-55E, magasság: 157 m

Jelenlegi meteorológiai megfigyelések

A jelentés 23 perccel ezelõtt készült, 17:30 UTC
Keleti szél 5 kt
Hőmérséklet -7°C
Páratartalom 57%
Légköri nyomás 1021 hPa
Látótávolság 10 km, vagy több

METAR: LJCE 251730Z AUTO 08005KT 9999 NSC M07/M14 Q1021

Idő: 18:53 (17:53 UTC)

Előrejelzés

A jelentés 53 perccel ezelõtt készült, 17:00 UTC
Az előrejelzés 25-én 18 óra UTC és 26-én 03 óra UTC között érvényes
Keleti szél 7 kt
Látótávolság 10 km, vagy több
Szórványos felhőzet 4000 lábon
25-én 18 óra UTC és 26-én 01 óra UTC között ideiglenes
Keleti szél 12 kt széllökések: 25 kt
Szakadozott felhőzet 4000 lábon
Valószínűség 40% :
25-én 18 óra UTC és 26-én 03 óra UTC között ideiglenes
enyhe havazás

TAF: LJCE 251700Z 2518/2603 08007KT 9999 SCT040 TEMPO 2518/2601 08012G25KT BKN040 PROB40 TEMPO 2518/2603 -SN

Meteorológiai megfigyelések és előrejelzések több, mint 4000 repülőtéren (METAR és TAF jelentéseket).

A térképen piros és sárga pontok jelzik az elérhető meteorológiai állomásokat.

Mozgassa az egeret a pont fölött, hogy megjelenjen az állomás neve.

Azután kattintson az időjárási megfigyelések és előrejelzések megtekintéséhez.

A térkép megváltoztatása: kattintson a fekete keresztel jelölt zöld gombra ráközelítéshez, a vonallal jelölt zöld gombra távolításhoz, vagy a zöld nyilakra a szomszédos térképek eléréséhez.


METAR-TAF: